RJNO(METAR)
05/21 16:00
RJNO 210700Z 17004KT CAVOK 20/14 Q1007 RMK A2976=
戻る
トップページへ戻る
IMOC Co,.Ltd.